sensor_id;sensor_type;location;lat;lon;timestamp;P1;durP1;ratioP1;P2;durP2;ratioP2
51971;SDS011;37991;49.662;10.060;2022-08-20T00:00:38;8.52;;;5.25;;
51971;SDS011;37991;49.662;10.060;2022-08-20T00:03:07;7.95;;;5.07;;
51971;SDS011;37991;49.662;10.060;2022-08-20T00:05:39;7.28;;;5.07;;
51971;SDS011;37991;49.662;10.060;2022-08-20T00:08:07;7.70;;;5.32;;
51971;SDS011;37991;49.662;10.060;2022-08-20T00:10:35;10.23;;;5.70;;
51971;SDS011;37991;49.662;10.060;2022-08-20T00:13:04;8.02;;;5.10;;
51971;SDS011;37991;49.662;10.060;2022-08-20T00:15:32;8.55;;;5.60;;
51971;SDS011;37991;49.662;10.060;2022-08-20T00:17:59;9.48;;;5.97;;
51971;SDS011;37991;49.662;10.060;2022-08-20T00:20:27;9.23;;;5.82;;
51971;SDS011;37991;49.662;10.060;2022-08-20T00:22:56;12.65;;;6.38;;
51971;SDS011;37991;49.662;10.060;2022-08-20T00:25:22;13.00;;;6.82;;
51971;SDS011;37991;49.662;10.060;2022-08-20T00:27:48;8.75;;;5.55;;
51971;SDS011;37991;49.662;10.060;2022-08-20T00:30:13;12.82;;;5.63;;
51971;SDS011;37991;49.662;10.060;2022-08-20T00:32:47;8.77;;;5.88;;
51971;SDS011;37991;49.662;10.060;2022-08-20T00:35:15;9.02;;;6.25;;
51971;SDS011;37991;49.662;10.060;2022-08-20T00:37:43;9.77;;;5.97;;
51971;SDS011;37991;49.662;10.060;2022-08-20T00:40:09;9.48;;;6.20;;
51971;SDS011;37991;49.662;10.060;2022-08-20T00:42:41;10.73;;;6.70;;
51971;SDS011;37991;49.662;10.060;2022-08-20T00:45:12;9.80;;;6.30;;
51971;SDS011;37991;49.662;10.060;2022-08-20T00:47:38;10.30;;;6.70;;
51971;SDS011;37991;49.662;10.060;2022-08-20T00:50:06;9.50;;;5.68;;
51971;SDS011;37991;49.662;10.060;2022-08-20T00:52:32;12.02;;;5.97;;
51971;SDS011;37991;49.662;10.060;2022-08-20T00:54:58;10.35;;;5.82;;
51971;SDS011;37991;49.662;10.060;2022-08-20T00:58:00;8.77;;;5.85;;
51971;SDS011;37991;49.662;10.060;2022-08-20T01:00:21;8.02;;;5.50;;
51971;SDS011;37991;49.662;10.060;2022-08-20T01:02:50;8.52;;;5.50;;
51971;SDS011;37991;49.662;10.060;2022-08-20T01:05:15;10.27;;;5.90;;
51971;SDS011;37991;49.662;10.060;2022-08-20T01:07:42;12.07;;;6.00;;
51971;SDS011;37991;49.662;10.060;2022-08-20T01:10:14;8.52;;;5.65;;
51971;SDS011;37991;49.662;10.060;2022-08-20T01:12:43;8.50;;;5.72;;
51971;SDS011;37991;49.662;10.060;2022-08-20T01:15:11;8.13;;;5.68;;
51971;SDS011;37991;49.662;10.060;2022-08-20T01:17:41;9.02;;;5.15;;
51971;SDS011;37991;49.662;10.060;2022-08-20T01:20:21;10.60;;;5.80;;
51971;SDS011;37991;49.662;10.060;2022-08-20T01:28:30;9.05;;;5.55;;
51971;SDS011;37991;49.662;10.060;2022-08-20T01:31:00;8.27;;;5.55;;
51971;SDS011;37991;49.662;10.060;2022-08-20T01:33:25;7.63;;;5.53;;
51971;SDS011;37991;49.662;10.060;2022-08-20T01:35:51;11.43;;;5.03;;
51971;SDS011;37991;49.662;10.060;2022-08-20T01:38:17;8.43;;;5.38;;
51971;SDS011;37991;49.662;10.060;2022-08-20T01:43:31;8.73;;;5.40;;
51971;SDS011;37991;49.662;10.060;2022-08-20T01:45:56;8.45;;;5.03;;
51971;SDS011;37991;49.662;10.060;2022-08-20T01:48:23;11.45;;;5.72;;
51971;SDS011;37991;49.662;10.060;2022-08-20T01:50:54;9.45;;;5.38;;
51971;SDS011;37991;49.662;10.060;2022-08-20T01:53:31;9.25;;;5.32;;
51971;SDS011;37991;49.662;10.060;2022-08-20T01:56:04;9.20;;;5.05;;
51971;SDS011;37991;49.662;10.060;2022-08-20T01:58:33;11.27;;;5.07;;
51971;SDS011;37991;49.662;10.060;2022-08-20T02:01:03;7.82;;;5.45;;
51971;SDS011;37991;49.662;10.060;2022-08-20T02:03:29;9.30;;;5.50;;
51971;SDS011;37991;49.662;10.060;2022-08-20T02:05:54;7.72;;;5.13;;
51971;SDS011;37991;49.662;10.060;2022-08-20T02:08:22;8.43;;;5.05;;
51971;SDS011;37991;49.662;10.060;2022-08-20T02:10:48;7.63;;;5.38;;
51971;SDS011;37991;49.662;10.060;2022-08-20T02:13:14;8.30;;;5.38;;
51971;SDS011;37991;49.662;10.060;2022-08-20T02:15:40;6.40;;;4.53;;
51971;SDS011;37991;49.662;10.060;2022-08-20T02:18:07;9.27;;;5.30;;
51971;SDS011;37991;49.662;10.060;2022-08-20T02:20:36;10.38;;;5.38;;
51971;SDS011;37991;49.662;10.060;2022-08-20T02:23:03;10.85;;;5.38;;
51971;SDS011;37991;49.662;10.060;2022-08-20T02:25:31;9.77;;;5.18;;
51971;SDS011;37991;49.662;10.060;2022-08-20T02:27:59;10.57;;;4.97;;
51971;SDS011;37991;49.662;10.060;2022-08-20T02:30:28;8.05;;;4.97;;
51971;SDS011;37991;49.662;10.060;2022-08-20T02:32:57;7.70;;;5.03;;
51971;SDS011;37991;49.662;10.060;2022-08-20T02:35:24;9.38;;;5.03;;
51971;SDS011;37991;49.662;10.060;2022-08-20T02:37:50;9.30;;;5.22;;
51971;SDS011;37991;49.662;10.060;2022-08-20T02:40:17;10.82;;;5.32;;
51971;SDS011;37991;49.662;10.060;2022-08-20T02:42:44;10.43;;;4.90;;
51971;SDS011;37991;49.662;10.060;2022-08-20T02:45:10;7.22;;;4.80;;
51971;SDS011;37991;49.662;10.060;2022-08-20T02:47:39;8.30;;;5.50;;
51971;SDS011;37991;49.662;10.060;2022-08-20T02:50:05;6.90;;;4.78;;
51971;SDS011;37991;49.662;10.060;2022-08-20T02:52:31;7.78;;;5.13;;
51971;SDS011;37991;49.662;10.060;2022-08-20T02:54:57;8.55;;;5.30;;
51971;SDS011;37991;49.662;10.060;2022-08-20T02:57:22;7.70;;;4.70;;
51971;SDS011;37991;49.662;10.060;2022-08-20T02:59:48;10.57;;;5.22;;
51971;SDS011;37991;49.662;10.060;2022-08-20T03:02:16;7.07;;;4.78;;
51971;SDS011;37991;49.662;10.060;2022-08-20T03:04:42;11.65;;;5.22;;
51971;SDS011;37991;49.662;10.060;2022-08-20T03:07:07;8.68;;;5.20;;
51971;SDS011;37991;49.662;10.060;2022-08-20T03:09:38;7.95;;;5.50;;
51971;SDS011;37991;49.662;10.060;2022-08-20T03:12:04;7.30;;;5.03;;
51971;SDS011;37991;49.662;10.060;2022-08-20T03:14:30;7.55;;;5.20;;
51971;SDS011;37991;49.662;10.060;2022-08-20T03:16:56;7.57;;;5.35;;
51971;SDS011;37991;49.662;10.060;2022-08-20T03:19:21;8.73;;;5.28;;
51971;SDS011;37991;49.662;10.060;2022-08-20T03:21:47;8.52;;;5.13;;
51971;SDS011;37991;49.662;10.060;2022-08-20T03:24:13;8.02;;;5.10;;
51971;SDS011;37991;49.662;10.060;2022-08-20T03:26:39;8.98;;;5.13;;
51971;SDS011;37991;49.662;10.060;2022-08-20T03:29:04;7.65;;;5.38;;
51971;SDS011;37991;49.662;10.060;2022-08-20T03:31:30;11.50;;;5.18;;
51971;SDS011;37991;49.662;10.060;2022-08-20T03:33:55;10.40;;;5.50;;
51971;SDS011;37991;49.662;10.060;2022-08-20T03:36:21;9.25;;;5.50;;
51971;SDS011;37991;49.662;10.060;2022-08-20T03:38:48;10.93;;;5.57;;
51971;SDS011;37991;49.662;10.060;2022-08-20T03:41:13;7.50;;;4.80;;
51971;SDS011;37991;49.662;10.060;2022-08-20T03:43:39;9.57;;;5.05;;
51971;SDS011;37991;49.662;10.060;2022-08-20T03:46:05;11.73;;;4.90;;
51971;SDS011;37991;49.662;10.060;2022-08-20T03:48:31;7.55;;;4.72;;
51971;SDS011;37991;49.662;10.060;2022-08-20T03:50:57;8.77;;;4.38;;
51971;SDS011;37991;49.662;10.060;2022-08-20T03:53:25;9.55;;;5.38;;
51971;SDS011;37991;49.662;10.060;2022-08-20T03:55:55;7.88;;;4.78;;
51971;SDS011;37991;49.662;10.060;2022-08-20T03:58:25;6.35;;;4.63;;
51971;SDS011;37991;49.662;10.060;2022-08-20T04:00:52;10.63;;;5.05;;
51971;SDS011;37991;49.662;10.060;2022-08-20T04:03:19;7.45;;;5.03;;
51971;SDS011;37991;49.662;10.060;2022-08-20T04:05:46;9.10;;;4.93;;
51971;SDS011;37991;49.662;10.060;2022-08-20T04:08:13;7.90;;;5.15;;
51971;SDS011;37991;49.662;10.060;2022-08-20T04:10:45;8.75;;;5.00;;
51971;SDS011;37991;49.662;10.060;2022-08-20T04:13:11;11.13;;;5.38;;
51971;SDS011;37991;49.662;10.060;2022-08-20T04:15:38;9.40;;;4.75;;
51971;SDS011;37991;49.662;10.060;2022-08-20T04:18:04;9.30;;;5.28;;
51971;SDS011;37991;49.662;10.060;2022-08-20T04:20:32;11.52;;;5.75;;
51971;SDS011;37991;49.662;10.060;2022-08-20T04:22:58;7.22;;;4.45;;
51971;SDS011;37991;49.662;10.060;2022-08-20T04:25:24;9.07;;;5.05;;
51971;SDS011;37991;49.662;10.060;2022-08-20T04:27:49;7.70;;;4.97;;
51971;SDS011;37991;49.662;10.060;2022-08-20T04:30:16;10.68;;;5.07;;
51971;SDS011;37991;49.662;10.060;2022-08-20T04:32:43;7.35;;;4.85;;
51971;SDS011;37991;49.662;10.060;2022-08-20T04:35:11;8.75;;;5.00;;
51971;SDS011;37991;49.662;10.060;2022-08-20T04:37:42;7.18;;;4.93;;
51971;SDS011;37991;49.662;10.060;2022-08-20T04:40:11;8.27;;;4.70;;
51971;SDS011;37991;49.662;10.060;2022-08-20T04:42:59;9.18;;;4.85;;
51971;SDS011;37991;49.662;10.060;2022-08-20T04:45:24;12.30;;;5.35;;
51971;SDS011;37991;49.662;10.060;2022-08-20T04:47:50;9.20;;;5.15;;
51971;SDS011;37991;49.662;10.060;2022-08-20T04:50:16;6.70;;;4.40;;
51971;SDS011;37991;49.662;10.060;2022-08-20T04:52:44;9.13;;;4.90;;
51971;SDS011;37991;49.662;10.060;2022-08-20T04:55:12;11.20;;;5.10;;
51971;SDS011;37991;49.662;10.060;2022-08-20T04:57:37;9.38;;;5.03;;
51971;SDS011;37991;49.662;10.060;2022-08-20T05:00:05;7.40;;;4.35;;
51971;SDS011;37991;49.662;10.060;2022-08-20T05:02:34;10.50;;;5.13;;
51971;SDS011;37991;49.662;10.060;2022-08-20T05:05:00;7.40;;;4.90;;
51971;SDS011;37991;49.662;10.060;2022-08-20T05:07:25;9.63;;;5.57;;
51971;SDS011;37991;49.662;10.060;2022-08-20T05:09:51;7.38;;;4.55;;
51971;SDS011;37991;49.662;10.060;2022-08-20T05:12:16;10.98;;;5.10;;
51971;SDS011;37991;49.662;10.060;2022-08-20T05:14:43;7.95;;;4.20;;
51971;SDS011;37991;49.662;10.060;2022-08-20T05:17:09;7.25;;;4.40;;
51971;SDS011;37991;49.662;10.060;2022-08-20T05:19:38;6.78;;;4.25;;
51971;SDS011;37991;49.662;10.060;2022-08-20T05:22:05;8.15;;;4.70;;
51971;SDS011;37991;49.662;10.060;2022-08-20T05:24:30;10.57;;;4.35;;
51971;SDS011;37991;49.662;10.060;2022-08-20T05:26:57;7.57;;;4.32;;
51971;SDS011;37991;49.662;10.060;2022-08-20T05:29:24;7.72;;;4.43;;
51971;SDS011;37991;49.662;10.060;2022-08-20T05:31:49;8.98;;;4.40;;
51971;SDS011;37991;49.662;10.060;2022-08-20T05:34:15;7.85;;;4.45;;
51971;SDS011;37991;49.662;10.060;2022-08-20T05:36:41;6.95;;;4.13;;
51971;SDS011;37991;49.662;10.060;2022-08-20T05:39:09;10.57;;;4.32;;
51971;SDS011;37991;49.662;10.060;2022-08-20T05:41:35;8.65;;;4.38;;
51971;SDS011;37991;49.662;10.060;2022-08-20T05:44:02;6.13;;;4.15;;
51971;SDS011;37991;49.662;10.060;2022-08-20T05:46:29;7.18;;;4.00;;
51971;SDS011;37991;49.662;10.060;2022-08-20T05:48:55;7.20;;;4.47;;
51971;SDS011;37991;49.662;10.060;2022-08-20T05:51:21;8.60;;;4.38;;
51971;SDS011;37991;49.662;10.060;2022-08-20T05:53:46;7.57;;;4.18;;
51971;SDS011;37991;49.662;10.060;2022-08-20T05:56:11;9.00;;;3.85;;
51971;SDS011;37991;49.662;10.060;2022-08-20T05:58:37;8.23;;;4.47;;
51971;SDS011;37991;49.662;10.060;2022-08-20T06:01:02;7.57;;;4.07;;
51971;SDS011;37991;49.662;10.060;2022-08-20T06:03:28;10.05;;;4.63;;
51971;SDS011;37991;49.662;10.060;2022-08-20T06:06:12;7.13;;;4.40;;
51971;SDS011;37991;49.662;10.060;2022-08-20T06:08:38;11.88;;;4.68;;
51971;SDS011;37991;49.662;10.060;2022-08-20T06:11:05;11.10;;;4.35;;
51971;SDS011;37991;49.662;10.060;2022-08-20T06:13:31;10.00;;;4.22;;
51971;SDS011;37991;49.662;10.060;2022-08-20T06:15:57;8.40;;;4.25;;
51971;SDS011;37991;49.662;10.060;2022-08-20T06:18:23;9.25;;;3.80;;
51971;SDS011;37991;49.662;10.060;2022-08-20T06:20:49;10.48;;;4.10;;
51971;SDS011;37991;49.662;10.060;2022-08-20T06:23:14;9.30;;;4.10;;
51971;SDS011;37991;49.662;10.060;2022-08-20T06:25:40;8.50;;;4.50;;
51971;SDS011;37991;49.662;10.060;2022-08-20T06:28:05;6.72;;;4.15;;
51971;SDS011;37991;49.662;10.060;2022-08-20T06:30:31;8.73;;;4.00;;
51971;SDS011;37991;49.662;10.060;2022-08-20T06:32:57;6.28;;;3.72;;
51971;SDS011;37991;49.662;10.060;2022-08-20T06:35:23;8.98;;;4.25;;
51971;SDS011;37991;49.662;10.060;2022-08-20T06:37:49;6.75;;;4.13;;
51971;SDS011;37991;49.662;10.060;2022-08-20T06:40:18;6.90;;;4.10;;
51971;SDS011;37991;49.662;10.060;2022-08-20T06:42:46;6.28;;;3.60;;
51971;SDS011;37991;49.662;10.060;2022-08-20T06:45:13;18.20;;;5.13;;
51971;SDS011;37991;49.662;10.060;2022-08-20T06:47:42;6.07;;;4.00;;
51971;SDS011;37991;49.662;10.060;2022-08-20T06:50:10;6.93;;;4.00;;
51971;SDS011;37991;49.662;10.060;2022-08-20T06:52:41;7.72;;;3.90;;
51971;SDS011;37991;49.662;10.060;2022-08-20T06:55:08;6.10;;;4.00;;
51971;SDS011;37991;49.662;10.060;2022-08-20T06:57:35;9.32;;;4.53;;
51971;SDS011;37991;49.662;10.060;2022-08-20T07:00:06;7.78;;;4.20;;
51971;SDS011;37991;49.662;10.060;2022-08-20T07:02:33;7.57;;;4.25;;
51971;SDS011;37991;49.662;10.060;2022-08-20T07:04:59;9.00;;;4.18;;
51971;SDS011;37991;49.662;10.060;2022-08-20T07:07:25;6.75;;;4.35;;
51971;SDS011;37991;49.662;10.060;2022-08-20T07:09:57;6.38;;;4.20;;
51971;SDS011;37991;49.662;10.060;2022-08-20T07:12:26;8.60;;;4.28;;
51971;SDS011;37991;49.662;10.060;2022-08-20T07:14:52;6.88;;;4.10;;
51971;SDS011;37991;49.662;10.060;2022-08-20T07:17:17;6.55;;;4.13;;
51971;SDS011;37991;49.662;10.060;2022-08-20T07:19:43;6.95;;;4.03;;
51971;SDS011;37991;49.662;10.060;2022-08-20T07:22:08;6.78;;;4.07;;
51971;SDS011;37991;49.662;10.060;2022-08-20T07:24:34;10.43;;;4.63;;
51971;SDS011;37991;49.662;10.060;2022-08-20T07:26:59;8.88;;;4.70;;
51971;SDS011;37991;49.662;10.060;2022-08-20T07:29:25;12.32;;;4.65;;
51971;SDS011;37991;49.662;10.060;2022-08-20T07:32:10;8.45;;;4.53;;
51971;SDS011;37991;49.662;10.060;2022-08-20T07:34:54;11.20;;;4.85;;
51971;SDS011;37991;49.662;10.060;2022-08-20T07:37:19;10.52;;;5.60;;
51971;SDS011;37991;49.662;10.060;2022-08-20T07:39:47;9.18;;;5.10;;
51971;SDS011;37991;49.662;10.060;2022-08-20T07:42:13;9.45;;;5.50;;
51971;SDS011;37991;49.662;10.060;2022-08-20T07:44:38;8.35;;;5.15;;
51971;SDS011;37991;49.662;10.060;2022-08-20T07:47:03;10.20;;;4.85;;
51971;SDS011;37991;49.662;10.060;2022-08-20T07:49:30;7.65;;;4.72;;
51971;SDS011;37991;49.662;10.060;2022-08-20T07:51:56;8.88;;;4.60;;
51971;SDS011;37991;49.662;10.060;2022-08-20T07:54:21;6.28;;;4.15;;
51971;SDS011;37991;49.662;10.060;2022-08-20T07:56:47;7.97;;;4.75;;
51971;SDS011;37991;49.662;10.060;2022-08-20T07:59:12;9.98;;;4.43;;
51971;SDS011;37991;49.662;10.060;2022-08-20T08:01:38;8.45;;;4.60;;
51971;SDS011;37991;49.662;10.060;2022-08-20T08:04:03;7.40;;;4.75;;
51971;SDS011;37991;49.662;10.060;2022-08-20T08:06:28;8.82;;;4.43;;
51971;SDS011;37991;49.662;10.060;2022-08-20T08:08:54;9.52;;;4.60;;
51971;SDS011;37991;49.662;10.060;2022-08-20T08:11:20;8.13;;;3.83;;
51971;SDS011;37991;49.662;10.060;2022-08-20T08:13:46;8.48;;;4.32;;
51971;SDS011;37991;49.662;10.060;2022-08-20T08:16:12;7.00;;;3.95;;
51971;SDS011;37991;49.662;10.060;2022-08-20T08:18:42;7.72;;;4.25;;
51971;SDS011;37991;49.662;10.060;2022-08-20T08:21:12;10.63;;;5.93;;
51971;SDS011;37991;49.662;10.060;2022-08-20T08:23:41;14.35;;;6.90;;
51971;SDS011;37991;49.662;10.060;2022-08-20T08:26:14;10.15;;;5.97;;
51971;SDS011;37991;49.662;10.060;2022-08-20T08:28:40;8.30;;;5.05;;
51971;SDS011;37991;49.662;10.060;2022-08-20T08:31:09;9.48;;;5.18;;
51971;SDS011;37991;49.662;10.060;2022-08-20T08:33:35;7.57;;;4.63;;
51971;SDS011;37991;49.662;10.060;2022-08-20T08:36:05;12.02;;;5.40;;
51971;SDS011;37991;49.662;10.060;2022-08-20T08:38:34;8.05;;;4.78;;
51971;SDS011;37991;49.662;10.060;2022-08-20T08:41:14;6.55;;;4.35;;
51971;SDS011;37991;49.662;10.060;2022-08-20T08:44:02;9.20;;;4.80;;
51971;SDS011;37991;49.662;10.060;2022-08-20T08:46:34;8.23;;;4.65;;
51971;SDS011;37991;49.662;10.060;2022-08-20T08:49:04;6.88;;;4.70;;
51971;SDS011;37991;49.662;10.060;2022-08-20T08:51:36;9.02;;;4.65;;
51971;SDS011;37991;49.662;10.060;2022-08-20T08:54:07;8.98;;;5.55;;
51971;SDS011;37991;49.662;10.060;2022-08-20T08:56:36;11.48;;;5.25;;
51971;SDS011;37991;49.662;10.060;2022-08-20T08:59:05;7.95;;;5.03;;
51971;SDS011;37991;49.662;10.060;2022-08-20T09:01:34;12.13;;;5.05;;
51971;SDS011;37991;49.662;10.060;2022-08-20T09:04:04;10.20;;;5.57;;
51971;SDS011;37991;49.662;10.060;2022-08-20T09:06:30;8.77;;;5.40;;
51971;SDS011;37991;49.662;10.060;2022-08-20T09:08:57;8.30;;;5.30;;
51971;SDS011;37991;49.662;10.060;2022-08-20T09:11:25;9.13;;;4.95;;
51971;SDS011;37991;49.662;10.060;2022-08-20T09:13:51;12.13;;;5.75;;
51971;SDS011;37991;49.662;10.060;2022-08-20T09:19:02;7.90;;;4.97;;
51971;SDS011;37991;49.662;10.060;2022-08-20T09:21:28;11.02;;;4.35;;
51971;SDS011;37991;49.662;10.060;2022-08-20T09:23:53;7.70;;;4.50;;
51971;SDS011;37991;49.662;10.060;2022-08-20T09:26:19;7.38;;;4.60;;
51971;SDS011;37991;49.662;10.060;2022-08-20T09:28:45;8.70;;;4.80;;
51971;SDS011;37991;49.662;10.060;2022-08-20T09:31:10;11.07;;;5.00;;
51971;SDS011;37991;49.662;10.060;2022-08-20T09:33:35;10.73;;;5.85;;
51971;SDS011;37991;49.662;10.060;2022-08-20T09:36:01;7.90;;;4.70;;
51971;SDS011;37991;49.662;10.060;2022-08-20T09:38:26;8.60;;;5.15;;
51971;SDS011;37991;49.662;10.060;2022-08-20T09:40:51;10.35;;;4.55;;
51971;SDS011;37991;49.662;10.060;2022-08-20T09:43:17;7.93;;;4.45;;
51971;SDS011;37991;49.662;10.060;2022-08-20T09:45:42;8.88;;;4.85;;
51971;SDS011;37991;49.662;10.060;2022-08-20T09:48:08;7.72;;;4.25;;
51971;SDS011;37991;49.662;10.060;2022-08-20T09:50:34;12.95;;;5.70;;
51971;SDS011;37991;49.662;10.060;2022-08-20T09:53:01;9.48;;;4.60;;
51971;SDS011;37991;49.662;10.060;2022-08-20T09:55:38;6.97;;;4.25;;
51971;SDS011;37991;49.662;10.060;2022-08-20T09:58:08;7.35;;;4.40;;
51971;SDS011;37991;49.662;10.060;2022-08-20T10:00:51;11.63;;;5.15;;
51971;SDS011;37991;49.662;10.060;2022-08-20T10:03:16;10.32;;;5.40;;
51971;SDS011;37991;49.662;10.060;2022-08-20T10:05:42;10.30;;;5.50;;
51971;SDS011;37991;49.662;10.060;2022-08-20T10:08:09;7.60;;;4.28;;
51971;SDS011;37991;49.662;10.060;2022-08-20T10:10:35;7.60;;;4.20;;
51971;SDS011;37991;49.662;10.060;2022-08-20T10:13:01;5.97;;;4.20;;
51971;SDS011;37991;49.662;10.060;2022-08-20T10:15:27;7.45;;;4.20;;
51971;SDS011;37991;49.662;10.060;2022-08-20T10:17:53;6.90;;;4.43;;
51971;SDS011;37991;49.662;10.060;2022-08-20T10:20:19;9.40;;;4.18;;
51971;SDS011;37991;49.662;10.060;2022-08-20T10:22:44;7.80;;;4.38;;
51971;SDS011;37991;49.662;10.060;2022-08-20T10:25:10;6.03;;;3.90;;
51971;SDS011;37991;49.662;10.060;2022-08-20T10:27:36;8.35;;;4.00;;
51971;SDS011;37991;49.662;10.060;2022-08-20T10:30:02;7.07;;;4.25;;
51971;SDS011;37991;49.662;10.060;2022-08-20T10:32:30;7.65;;;4.63;;
51971;SDS011;37991;49.662;10.060;2022-08-20T10:34:55;5.90;;;4.30;;
51971;SDS011;37991;49.662;10.060;2022-08-20T10:37:21;6.25;;;4.25;;
51971;SDS011;37991;49.662;10.060;2022-08-20T10:39:48;8.60;;;3.90;;
51971;SDS011;37991;49.662;10.060;2022-08-20T10:42:14;6.45;;;4.10;;
51971;SDS011;37991;49.662;10.060;2022-08-20T10:44:40;6.10;;;3.90;;
51971;SDS011;37991;49.662;10.060;2022-08-20T10:47:20;6.32;;;3.88;;
51971;SDS011;37991;49.662;10.060;2022-08-20T10:49:51;8.57;;;4.28;;
51971;SDS011;37991;49.662;10.060;2022-08-20T10:52:19;5.85;;;3.70;;
51971;SDS011;37991;49.662;10.060;2022-08-20T10:54:45;5.18;;;3.90;;
51971;SDS011;37991;49.662;10.060;2022-08-20T10:57:18;6.13;;;4.38;;
51971;SDS011;37991;49.662;10.060;2022-08-20T10:59:46;6.95;;;4.03;;
51971;SDS011;37991;49.662;10.060;2022-08-20T11:02:14;8.13;;;3.80;;
51971;SDS011;37991;49.662;10.060;2022-08-20T11:04:39;5.72;;;3.60;;
51971;SDS011;37991;49.662;10.060;2022-08-20T11:07:24;6.63;;;3.88;;
51971;SDS011;37991;49.662;10.060;2022-08-20T11:09:57;7.15;;;4.13;;
51971;SDS011;37991;49.662;10.060;2022-08-20T11:12:23;5.07;;;3.50;;
51971;SDS011;37991;49.662;10.060;2022-08-20T11:14:49;7.28;;;4.25;;
51971;SDS011;37991;49.662;10.060;2022-08-20T11:17:22;6.32;;;3.75;;
51971;SDS011;37991;49.662;10.060;2022-08-20T11:19:52;5.95;;;3.78;;
51971;SDS011;37991;49.662;10.060;2022-08-20T11:22:18;5.05;;;3.40;;
51971;SDS011;37991;49.662;10.060;2022-08-20T11:24:44;5.10;;;3.58;;
51971;SDS011;37991;49.662;10.060;2022-08-20T11:27:10;4.53;;;3.15;;
51971;SDS011;37991;49.662;10.060;2022-08-20T11:29:45;3.05;;;2.70;;
51971;SDS011;37991;49.662;10.060;2022-08-20T11:32:11;5.05;;;2.80;;
51971;SDS011;37991;49.662;10.060;2022-08-20T11:34:36;3.45;;;2.70;;
51971;SDS011;37991;49.662;10.060;2022-08-20T11:37:01;3.67;;;2.80;;
51971;SDS011;37991;49.662;10.060;2022-08-20T11:39:27;2.90;;;2.50;;
51971;SDS011;37991;49.662;10.060;2022-08-20T11:41:53;4.32;;;3.10;;
51971;SDS011;37991;49.662;10.060;2022-08-20T11:44:18;4.00;;;3.08;;
51971;SDS011;37991;49.662;10.060;2022-08-20T11:46:43;2.50;;;2.30;;
51971;SDS011;37991;49.662;10.060;2022-08-20T11:49:09;2.22;;;1.92;;
51971;SDS011;37991;49.662;10.060;2022-08-20T11:51:34;2.80;;;2.20;;
51971;SDS011;37991;49.662;10.060;2022-08-20T11:54:01;3.60;;;1.77;;
51971;SDS011;37991;49.662;10.060;2022-08-20T11:56:27;2.47;;;2.13;;
51971;SDS011;37991;49.662;10.060;2022-08-20T11:58:53;3.50;;;2.42;;
51971;SDS011;37991;49.662;10.060;2022-08-20T12:01:18;3.85;;;2.50;;
51971;SDS011;37991;49.662;10.060;2022-08-20T12:03:44;2.13;;;1.92;;
51971;SDS011;37991;49.662;10.060;2022-08-20T12:06:09;3.03;;;2.47;;
51971;SDS011;37991;49.662;10.060;2022-08-20T12:08:34;2.75;;;2.50;;
51971;SDS011;37991;49.662;10.060;2022-08-20T12:11:01;2.83;;;2.20;;
51971;SDS011;37991;49.662;10.060;2022-08-20T12:13:27;2.15;;;1.95;;
51971;SDS011;37991;49.662;10.060;2022-08-20T12:15:54;2.10;;;1.90;;
51971;SDS011;37991;49.662;10.060;2022-08-20T12:18:20;1.75;;;1.65;;
51971;SDS011;37991;49.662;10.060;2022-08-20T12:20:46;1.88;;;1.58;;
51971;SDS011;37991;49.662;10.060;2022-08-20T12:23:11;2.58;;;2.38;;
51971;SDS011;37991;49.662;10.060;2022-08-20T12:25:37;2.15;;;1.75;;
51971;SDS011;37991;49.662;10.060;2022-08-20T12:28:02;2.70;;;2.03;;
51971;SDS011;37991;49.662;10.060;2022-08-20T12:30:29;2.17;;;1.95;;
51971;SDS011;37991;49.662;10.060;2022-08-20T12:32:55;2.03;;;1.80;;
51971;SDS011;37991;49.662;10.060;2022-08-20T12:35:21;1.83;;;1.65;;
51971;SDS011;37991;49.662;10.060;2022-08-20T12:37:46;2.53;;;2.00;;
51971;SDS011;37991;49.662;10.060;2022-08-20T12:40:16;3.00;;;2.30;;
51971;SDS011;37991;49.662;10.060;2022-08-20T12:42:44;2.55;;;2.22;;
51971;SDS011;37991;49.662;10.060;2022-08-20T12:45:10;2.50;;;2.22;;
51971;SDS011;37991;49.662;10.060;2022-08-20T12:47:37;2.05;;;1.85;;
51971;SDS011;37991;49.662;10.060;2022-08-20T12:50:05;2.75;;;2.00;;
51971;SDS011;37991;49.662;10.060;2022-08-20T12:52:36;3.53;;;2.25;;
51971;SDS011;37991;49.662;10.060;2022-08-20T12:55:02;2.42;;;2.22;;
51971;SDS011;37991;49.662;10.060;2022-08-20T12:57:31;9.50;;;2.80;;
51971;SDS011;37991;49.662;10.060;2022-08-20T13:00:02;2.47;;;2.10;;
51971;SDS011;37991;49.662;10.060;2022-08-20T13:02:31;2.42;;;2.22;;
51971;SDS011;37991;49.662;10.060;2022-08-20T13:04:56;2.60;;;2.20;;
51971;SDS011;37991;49.662;10.060;2022-08-20T13:07:22;2.38;;;1.77;;
51971;SDS011;37991;49.662;10.060;2022-08-20T13:09:47;2.00;;;1.80;;
51971;SDS011;37991;49.662;10.060;2022-08-20T13:12:13;3.75;;;2.20;;
51971;SDS011;37991;49.662;10.060;2022-08-20T13:14:38;3.42;;;1.88;;
51971;SDS011;37991;49.662;10.060;2022-08-20T13:17:05;2.65;;;2.03;;
51971;SDS011;37991;49.662;10.060;2022-08-20T13:19:31;3.22;;;2.20;;
51971;SDS011;37991;49.662;10.060;2022-08-20T13:21:58;2.08;;;1.88;;
51971;SDS011;37991;49.662;10.060;2022-08-20T13:24:23;2.85;;;2.17;;
51971;SDS011;37991;49.662;10.060;2022-08-20T13:26:50;2.10;;;1.90;;
51971;SDS011;37991;49.662;10.060;2022-08-20T13:29:16;2.10;;;1.90;;
51971;SDS011;37991;49.662;10.060;2022-08-20T13:31:43;2.35;;;2.08;;
51971;SDS011;37991;49.662;10.060;2022-08-20T13:34:08;2.40;;;2.00;;
51971;SDS011;37991;49.662;10.060;2022-08-20T13:36:34;3.78;;;2.20;;
51971;SDS011;37991;49.662;10.060;2022-08-20T13:39:00;2.35;;;2.15;;
51971;SDS011;37991;49.662;10.060;2022-08-20T13:41:27;2.72;;;2.17;;
51971;SDS011;37991;49.662;10.060;2022-08-20T13:43:52;2.42;;;2.05;;
51971;SDS011;37991;49.662;10.060;2022-08-20T13:46:18;3.05;;;2.05;;
51971;SDS011;37991;49.662;10.060;2022-08-20T13:48:44;4.43;;;2.33;;
51971;SDS011;37991;49.662;10.060;2022-08-20T13:51:10;2.80;;;2.15;;
51971;SDS011;37991;49.662;10.060;2022-08-20T13:53:35;3.83;;;1.85;;
51971;SDS011;37991;49.662;10.060;2022-08-20T13:56:01;5.57;;;2.25;;
51971;SDS011;37991;49.662;10.060;2022-08-20T13:58:26;2.17;;;1.88;;
51971;SDS011;37991;49.662;10.060;2022-08-20T14:00:51;2.10;;;1.90;;
51971;SDS011;37991;49.662;10.060;2022-08-20T14:03:17;2.38;;;2.00;;
51971;SDS011;37991;49.662;10.060;2022-08-20T14:05:42;3.05;;;2.47;;
51971;SDS011;37991;49.662;10.060;2022-08-20T14:08:09;1.90;;;1.70;;
51971;SDS011;37991;49.662;10.060;2022-08-20T14:10:42;2.40;;;1.90;;
51971;SDS011;37991;49.662;10.060;2022-08-20T14:13:08;1.83;;;1.70;;
51971;SDS011;37991;49.662;10.060;2022-08-20T14:15:34;3.85;;;1.83;;
51971;SDS011;37991;49.662;10.060;2022-08-20T14:18:00;2.28;;;1.90;;
51971;SDS011;37991;49.662;10.060;2022-08-20T14:20:27;1.70;;;1.60;;
51971;SDS011;37991;49.662;10.060;2022-08-20T14:22:55;2.72;;;1.60;;
51971;SDS011;37991;49.662;10.060;2022-08-20T14:25:22;5.70;;;1.73;;
51971;SDS011;37991;49.662;10.060;2022-08-20T14:27:48;1.10;;;1.00;;
51971;SDS011;37991;49.662;10.060;2022-08-20T14:30:17;3.55;;;2.03;;
51971;SDS011;37991;49.662;10.060;2022-08-20T14:32:45;11.55;;;2.08;;
51971;SDS011;37991;49.662;10.060;2022-08-20T14:35:10;6.18;;;2.00;;
51971;SDS011;37991;49.662;10.060;2022-08-20T14:37:37;4.22;;;1.73;;
51971;SDS011;37991;49.662;10.060;2022-08-20T14:40:06;3.78;;;1.90;;
51971;SDS011;37991;49.662;10.060;2022-08-20T14:42:37;4.32;;;2.58;;
51971;SDS011;37991;49.662;10.060;2022-08-20T14:45:03;4.47;;;1.92;;